Time;durP1;ratioP1;P1;durP2;ratioP2;P2;SDS_P1;SDS_P2;PMS_P1;PMS_P2;Temp;Humidity;BMP_temperature;BMP_pressure;BME280_temperature;BME280_humidity;BME280_pressure;Samples;Min_cycle;Max_cycle;Signal;HPM_P1;HPM_P2
2024/04/15 00:00:26;;;;;;;14.30;5.30;;;11.70;55.30;;;;;;5450580;26;20702;-72
2024/04/15 00:02:51;;;;;;;17.20;5.70;;;11.60;56.90;;;;;;5450481;26;20332;-71
2024/04/15 00:05:17;;;;;;;19.02;5.63;;;11.60;58.30;;;;;;5450078;26;20452;-70
2024/04/15 00:07:43;;;;;;;14.93;5.57;;;11.50;58.60;;;;;;5450607;26;20322;-73
2024/04/15 00:10:09;;;;;;;11.55;5.72;;;11.50;60.00;;;;;;5450403;26;20372;-72
2024/04/15 00:12:35;;;;;;;16.95;6.20;;;11.50;61.60;;;;;;5450606;26;20325;-72
2024/04/15 00:15:00;;;;;;;13.02;5.80;;;11.40;62.60;;;;;;5448864;26;20324;-71
2024/04/15 00:17:26;;;;;;;11.25;6.22;;;11.30;64.00;;;;;;5450118;26;20361;-71
2024/04/15 00:19:52;;;;;;;16.23;6.03;;;11.30;65.10;;;;;;5450410;26;20379;-71
2024/04/15 00:22:17;;;;;;;13.07;6.80;;;11.20;65.10;;;;;;5450064;26;20400;-71
2024/04/15 00:24:43;;;;;;;16.67;6.88;;;11.20;67.30;;;;;;5417967;26;20336;-71
2024/04/15 00:27:08;;;;;;;17.00;7.30;;;11.10;67.40;;;;;;5449861;26;20382;-71
2024/04/15 00:29:34;;;;;;;13.27;6.33;;;11.10;69.20;;;;;;5450181;26;20737;-72
2024/04/15 00:31:59;;;;;;;16.40;7.57;;;11.10;69.30;;;;;;5450093;26;20320;-72
2024/04/15 00:34:25;;;;;;;13.77;6.27;;;11.10;69.20;;;;;;5451725;26;20333;-71
2024/04/15 00:36:51;;;;;;;14.17;6.40;;;11.00;70.40;;;;;;5452282;26;20389;-74
2024/04/15 00:39:16;;;;;;;17.42;6.47;;;11.10;72.50;;;;;;5450298;26;20337;-73
2024/04/15 00:41:42;;;;;;;11.30;6.78;;;11.10;73.30;;;;;;5450176;26;20736;-72
2024/04/15 00:44:08;;;;;;;17.35;6.53;;;11.00;74.40;;;;;;5449644;26;20365;-72
2024/04/15 00:46:34;;;;;;;15.63;6.60;;;10.90;75.30;;;;;;5450166;26;20321;-72
2024/04/15 00:49:01;;;;;;;13.38;7.20;;;11.00;76.30;;;;;;5449290;26;20345;-72
2024/04/15 00:51:27;;;;;;;15.80;7.43;;;11.00;74.90;;;;;;5449516;26;20842;-72
2024/04/15 00:53:55;;;;;;;12.02;7.20;;;11.00;74.30;;;;;;5449224;26;20496;-73
2024/04/15 00:56:22;;;;;;;13.67;6.97;;;11.00;76.30;;;;;;5449326;26;20325;-72
2024/04/15 00:58:48;;;;;;;16.17;6.70;;;11.30;69.40;;;;;;5449728;26;20332;-71
2024/04/15 01:01:14;;;;;;;14.68;7.20;;;11.40;66.10;;;;;;5449456;26;20873;-71
2024/04/15 01:03:40;;;;;;;25.13;7.68;;;11.40;66.50;;;;;;5449235;26;20860;-70
2024/04/15 01:06:06;;;;;;;18.42;8.40;;;11.20;68.50;;;;;;5449793;26;20321;-72
2024/04/15 01:08:32;;;;;;;14.60;7.85;;;11.10;72.40;;;;;;5449762;26;20321;-72
2024/04/15 01:10:58;;;;;;;13.40;8.20;;;11.00;75.80;;;;;;5449376;26;20445;-71
2024/04/15 01:13:24;;;;;;;18.40;9.00;;;11.00;77.60;;;;;;5448808;26;20324;-72
2024/04/15 01:15:59;;;;;;;17.15;8.13;;;11.00;79.00;;;;;;5449601;26;20487;-71
2024/04/15 01:18:25;;;;;;;15.70;9.07;;;11.00;80.10;;;;;;5449361;26;20897;-71
2024/04/15 01:20:53;;;;;;;13.90;8.40;;;11.00;81.70;;;;;;5449071;26;20377;-72
2024/04/15 01:23:22;;;;;;;23.17;9.07;;;11.00;82.70;;;;;;5448890;26;20826;-72
2024/04/15 01:25:47;;;;;;;16.58;8.60;;;11.00;83.80;;;;;;5449374;26;20332;-71
2024/04/15 01:28:13;;;;;;;15.65;8.20;;;11.00;84.90;;;;;;5452845;26;20455;-71
2024/04/15 01:30:39;;;;;;;14.70;8.60;;;11.00;84.30;;;;;;5453146;26;20418;-72
2024/04/15 01:33:05;;;;;;;15.82;8.02;;;11.00;85.10;;;;;;5452801;26;20338;-71
2024/04/15 01:35:31;;;;;;;16.63;8.77;;;11.00;84.60;;;;;;5452188;26;20332;-72
2024/04/15 01:37:56;;;;;;;18.43;9.20;;;11.00;84.30;;;;;;5452563;26;20321;-72
2024/04/15 01:40:22;;;;;;;16.83;8.30;;;11.10;84.50;;;;;;5452405;26;20679;-71
2024/04/15 01:42:47;;;;;;;15.30;8.53;;;11.10;83.80;;;;;;5452859;26;20415;-71
2024/04/15 01:45:13;;;;;;;20.25;9.05;;;11.10;85.00;;;;;;5452305;26;20321;-71
2024/04/15 01:47:39;;;;;;;13.60;9.05;;;11.00;85.90;;;;;;5452678;26;20376;-73
2024/04/15 01:50:04;;;;;;;18.80;9.57;;;10.80;87.50;;;;;;5452258;26;20365;-72
2024/04/15 01:52:30;;;;;;;18.38;9.23;;;10.60;89.30;;;;;;5452174;26;20379;-72
2024/04/15 01:54:56;;;;;;;16.60;9.20;;;10.40;90.80;;;;;;5452283;26;20905;-71
2024/04/15 01:57:21;;;;;;;17.48;10.15;;;10.30;93.10;;;;;;5453158;26;20324;-72
2024/04/15 01:59:47;;;;;;;20.00;11.27;;;10.20;96.20;;;;;;5453171;26;20385;-73
2024/04/15 02:02:12;;;;;;;19.83;11.00;;;10.00;96.90;;;;;;5452635;26;20352;-73
2024/04/15 02:04:38;;;;;;;17.80;11.40;;;9.90;98.40;;;;;;5420335;26;20325;-72
2024/04/15 02:07:03;;;;;;;22.67;12.00;;;9.90;99.90;;;;;;5452648;26;20545;-72
2024/04/15 02:09:29;;;;;;;25.92;13.20;;;9.80;99.90;;;;;;5452140;26;20676;-73
2024/04/15 02:11:54;;;;;;;19.90;13.20;;;9.80;99.70;;;;;;5452132;26;20360;-74
2024/04/15 02:14:20;;;;;;;28.30;13.77;;;9.70;99.90;;;;;;5452133;26;20361;-72
2024/04/15 02:16:46;;;;;;;23.70;14.80;;;9.70;99.90;;;;;;5452175;26;20364;-73
2024/04/15 02:19:11;;;;;;;27.42;14.75;;;9.60;99.90;;;;;;5453413;26;20329;-71
2024/04/15 02:21:37;;;;;;;26.38;16.00;;;9.60;99.90;;;;;;5453476;26;20434;-72
2024/04/15 02:24:02;;;;;;;27.25;15.75;;;9.50;99.90;;;;;;5453627;26;20385;-71
2024/04/15 02:26:28;;;;;;;31.73;15.63;;;9.50;99.90;;;;;;5421211;26;20742;-71
2024/04/15 02:28:53;;;;;;;30.20;16.93;;;9.40;99.90;;;;;;5453008;26;20390;-72
2024/04/15 02:31:19;;;;;;;26.93;16.60;;;9.40;99.90;;;;;;5451545;26;20349;-73
2024/04/15 02:33:44;;;;;;;33.50;17.90;;;9.40;99.90;;;;;;5451101;26;20328;-71
2024/04/15 02:36:10;;;;;;;33.10;17.50;;;9.30;99.90;;;;;;5451774;26;20745;-72
2024/04/15 02:38:35;;;;;;;28.77;17.40;;;9.20;99.90;;;;;;5450621;26;20333;-73
2024/04/15 02:41:01;;;;;;;30.90;17.67;;;9.10;99.90;;;;;;5451069;26;20442;-73
2024/04/15 02:43:26;;;;;;;26.83;17.10;;;9.10;99.90;;;;;;5451061;26;20407;-71
2024/04/15 02:45:52;;;;;;;28.05;17.17;;;9.10;99.90;;;;;;5451093;26;20827;-71
2024/04/15 02:48:18;;;;;;;31.27;18.05;;;9.10;99.90;;;;;;5419638;26;20329;-73
2024/04/15 02:50:43;;;;;;;32.43;17.30;;;9.10;99.90;;;;;;5451212;26;20333;-71
2024/04/15 02:53:09;;;;;;;29.70;17.10;;;9.20;99.90;;;;;;5451232;26;20325;-71
2024/04/15 02:55:34;;;;;;;31.17;17.00;;;9.20;99.90;;;;;;5419520;26;20328;-72
2024/04/15 02:58:00;;;;;;;31.40;16.93;;;9.30;99.90;;;;;;5451180;26;20376;-73
2024/04/15 03:00:25;;;;;;;31.70;16.93;;;9.30;99.90;;;;;;5450979;26;20767;-73
2024/04/15 03:02:51;;;;;;;30.30;16.65;;;9.40;99.90;;;;;;5451095;26;20361;-72
2024/04/15 03:05:17;;;;;;;26.98;15.70;;;9.50;99.90;;;;;;5450885;26;20727;-71
2024/04/15 03:07:42;;;;;;;31.07;17.77;;;9.40;99.90;;;;;;5450998;26;20329;-72
2024/04/15 03:10:08;;;;;;;29.93;16.10;;;9.60;99.90;;;;;;5450728;26;20666;-71
2024/04/15 03:12:33;;;;;;;34.70;17.20;;;9.70;99.90;;;;;;5450681;26;20373;-72
2024/04/15 03:14:59;;;;;;;28.33;16.80;;;9.70;99.90;;;;;;5450551;26;20414;-71
2024/04/15 03:17:24;;;;;;;29.73;16.33;;;9.60;99.90;;;;;;5450723;26;20329;-72
2024/04/15 03:19:53;;;;;;;26.17;15.73;;;9.70;99.90;;;;;;5450852;26;20830;-72
2024/04/15 03:22:18;;;;;;;30.60;15.50;;;9.60;99.90;;;;;;5450910;26;20325;-72
2024/04/15 03:24:47;;;;;;;31.47;16.40;;;9.60;99.90;;;;;;5450341;26;20328;-70
2024/04/15 03:27:12;;;;;;;26.20;13.02;;;9.60;99.90;;;;;;5418854;26;20328;-71
2024/04/15 03:29:38;;;;;;;25.43;11.93;;;9.60;98.70;;;;;;5450378;26;20437;-71
2024/04/15 03:32:04;;;;;;;24.70;12.17;;;9.50;97.40;;;;;;5450396;26;20377;-73
2024/04/15 03:34:29;;;;;;;20.37;10.80;;;9.50;96.80;;;;;;5450351;26;20337;-71
2024/04/15 03:36:55;;;;;;;22.27;11.43;;;9.40;94.80;;;;;;5450526;26;20371;-72
2024/04/15 03:39:21;;;;;;;20.77;10.23;;;9.40;94.20;;;;;;5450395;26;20344;-71
2024/04/15 03:41:46;;;;;;;21.93;10.90;;;9.40;92.00;;;;;;5450579;26;20344;-71
2024/04/15 03:44:12;;;;;;;17.43;9.60;;;9.30;92.10;;;;;;5450131;26;20699;-71
2024/04/15 03:46:37;;;;;;;19.70;9.90;;;9.30;90.70;;;;;;5450423;26;20811;-72
2024/04/15 03:49:03;;;;;;;18.37;8.60;;;9.20;89.20;;;;;;5447473;26;20385;-72
2024/04/15 03:51:28;;;;;;;18.25;9.23;;;9.20;89.90;;;;;;5449697;26;20423;-72
2024/04/15 03:53:54;;;;;;;18.83;8.98;;;9.30;88.10;;;;;;5449410;26;20340;-71
2024/04/15 03:56:19;;;;;;;20.67;9.43;;;9.20;89.30;;;;;;5450439;26;20816;-71
2024/04/15 03:58:45;;;;;;;18.83;8.20;;;9.10;88.60;;;;;;5450177;26;20355;-73
2024/04/15 04:01:10;;;;;;;16.20;9.10;;;9.00;89.30;;;;;;5451017;26;20317;-73
2024/04/15 04:03:36;;;;;;;17.87;8.40;;;9.00;87.40;;;;;;5450567;26;20392;-72
2024/04/15 04:06:01;;;;;;;12.43;8.10;;;9.10;86.90;;;;;;5449993;26;20395;-72
2024/04/15 04:08:27;;;;;;;18.17;8.17;;;9.10;86.00;;;;;;5448966;26;20336;-71
2024/04/15 04:10:53;;;;;;;19.87;8.20;;;9.10;85.60;;;;;;5447710;26;20819;-72
2024/04/15 04:13:19;;;;;;;18.98;9.65;;;9.20;83.10;;;;;;5417540;26;20341;-71
2024/04/15 04:15:44;;;;;;;21.55;9.35;;;9.20;84.20;;;;;;5450308;26;20402;-73
2024/04/15 04:18:10;;;;;;;17.45;9.73;;;9.10;84.80;;;;;;5415906;26;20410;-72
2024/04/15 04:20:35;;;;;;;22.38;10.23;;;9.10;86.10;;;;;;5449574;26;20348;-72
2024/04/15 04:23:01;;;;;;;21.48;10.55;;;9.10;85.20;;;;;;5450040;26;20376;-77
2024/04/15 04:25:27;;;;;;;17.73;10.20;;;9.10;85.30;;;;;;5449159;26;20680;-72
2024/04/15 04:27:52;;;;;;;20.85;10.75;;;9.10;84.50;;;;;;5449657;26;20365;-72
2024/04/15 04:30:18;;;;;;;16.75;10.35;;;9.10;85.60;;;;;;5449443;26;20344;-70
2024/04/15 04:32:44;;;;;;;18.67;10.48;;;9.10;83.60;;;;;;5449741;26;20341;-72
2024/04/15 04:35:10;;;;;;;20.95;10.30;;;9.10;83.70;;;;;;5449061;26;20823;-74
2024/04/15 04:37:35;;;;;;;28.30;11.93;;;9.00;84.60;;;;;;5450055;26;20993;-72
2024/04/15 04:40:03;;;;;;;22.55;9.82;;;9.00;84.70;;;;;;5448712;26;21691;-71
2024/04/15 04:42:28;;;;;;;27.00;10.40;;;9.10;83.60;;;;;;5449335;26;20360;-72
2024/04/15 04:44:54;;;;;;;22.90;10.57;;;9.00;84.50;;;;;;5388355;26;20804;-71
2024/04/15 04:47:21;;;;;;;22.35;10.90;;;8.90;86.70;;;;;;5450327;26;20328;-70
2024/04/15 04:49:53;;;;;;;20.08;10.30;;;8.90;86.90;;;;;;5449535;26;20366;-71
2024/04/15 04:52:19;;;;;;;21.35;10.13;;;8.90;85.40;;;;;;5449536;26;20325;-72
2024/04/15 04:54:48;;;;;;;19.10;9.82;;;8.90;84.00;;;;;;5418043;26;20333;-72
2024/04/15 04:57:14;;;;;;;20.75;10.25;;;9.00;82.70;;;;;;5450376;26;20367;-71
2024/04/15 04:59:39;;;;;;;20.30;9.70;;;8.90;83.40;;;;;;5450266;26;20337;-72
2024/04/15 05:02:05;;;;;;;21.50;10.27;;;8.90;83.20;;;;;;5449816;26;20475;-71
2024/04/15 05:04:32;;;;;;;19.98;9.18;;;8.90;83.90;;;;;;5449032;26;20325;-71
2024/04/15 05:06:57;;;;;;;20.42;10.27;;;8.90;81.70;;;;;;5449206;26;20340;-72
2024/04/15 05:09:23;;;;;;;13.93;8.20;;;8.90;80.00;;;;;;5448818;26;20366;-72
2024/04/15 05:11:49;;;;;;;16.17;8.18;;;9.00;79.50;;;;;;5448929;26;20333;-73
2024/04/15 05:14:15;;;;;;;16.05;8.00;;;9.00;78.90;;;;;;5449085;26;20388;-72
2024/04/15 05:16:41;;;;;;;17.42;8.70;;;9.00;78.50;;;;;;5449721;26;20361;-72
2024/04/15 05:19:08;;;;;;;19.35;9.00;;;9.10;78.20;;;;;;5448797;26;20332;-72
2024/04/15 05:21:34;;;;;;;16.08;7.80;;;9.10;75.90;;;;;;5449090;26;20457;-73
2024/04/15 05:24:00;;;;;;;22.02;7.57;;;9.10;78.10;;;;;;5448837;26;20377;-72
2024/04/15 05:26:25;;;;;;;16.20;7.75;;;9.10;75.10;;;;;;5449280;26;20734;-72
2024/04/15 05:28:51;;;;;;;22.50;8.10;;;9.20;73.10;;;;;;5453271;26;20382;-71
2024/04/15 05:31:16;;;;;;;16.98;7.28;;;9.20;70.20;;;;;;5449834;26;20321;-71
2024/04/15 05:33:42;;;;;;;13.95;7.28;;;9.30;70.20;;;;;;5450408;26;20341;-73
2024/04/15 05:36:07;;;;;;;18.23;7.43;;;9.30;70.50;;;;;;5449897;26;20337;-74
2024/04/15 05:38:33;;;;;;;19.13;7.37;;;9.30;71.10;;;;;;5450134;26;20764;-73
2024/04/15 05:40:58;;;;;;;17.70;6.83;;;9.50;68.10;;;;;;5454759;26;20337;-72
2024/04/15 05:43:25;;;;;;;18.27;7.13;;;9.50;68.10;;;;;;5448944;26;20324;-70
2024/04/15 05:45:51;;;;;;;16.83;6.90;;;9.60;66.40;;;;;;5448468;26;20715;-73
2024/04/15 05:48:17;;;;;;;18.03;6.70;;;9.70;67.00;;;;;;5449882;26;20341;-73
2024/04/15 05:50:42;;;;;;;12.23;6.20;;;9.60;66.00;;;;;;5450730;26;20668;-71
2024/04/15 05:53:08;;;;;;;17.30;6.40;;;9.70;60.90;;;;;;5418165;26;20676;-74
2024/04/15 05:55:34;;;;;;;20.58;6.68;;;9.90;60.00;;;;;;5449843;26;20741;-71
2024/04/15 05:58:00;;;;;;;13.77;5.47;;;10.10;59.10;;;;;;5449922;26;20355;-71
2024/04/15 06:00:26;;;;;;;16.20;6.10;;;10.20;55.50;;;;;;5417008;26;20325;-72
2024/04/15 06:02:51;;;;;;;16.67;6.20;;;10.20;55.80;;;;;;5448106;26;20337;-72
2024/04/15 06:05:17;;;;;;;14.47;5.07;;;10.30;55.10;;;;;;5447876;26;20827;-72
2024/04/15 06:07:42;;;;;;;16.07;5.40;;;10.30;53.70;;;;;;5448226;26;20337;-73
2024/04/15 06:10:09;;;;;;;14.17;4.73;;;10.30;52.70;;;;;;5448369;26;20368;-73
2024/04/15 06:12:35;;;;;;;12.23;4.90;;;10.20;53.30;;;;;;5448932;26;20768;-74
2024/04/15 06:15:00;;;;;;;11.00;4.50;;;10.30;54.30;;;;;;5451430;26;20373;-72
2024/04/15 06:17:26;;;;;;;15.80;4.60;;;10.50;51.30;;;;;;5451828;26;20836;-72
2024/04/15 06:19:52;;;;;;;12.47;4.80;;;10.50;51.10;;;;;;5451874;26;20379;-72
2024/04/15 06:22:18;;;;;;;15.80;4.23;;;10.40;51.20;;;;;;5451896;26;20854;-72
2024/04/15 06:24:44;;;;;;;17.23;4.77;;;10.40;50.40;;;;;;5451010;26;20487;-72
2024/04/15 06:27:09;;;;;;;17.20;4.32;;;10.30;51.10;;;;;;5451595;26;20811;-73
2024/04/15 06:29:36;;;;;;;15.20;4.10;;;10.30;51.00;;;;;;5451631;26;20356;-71
2024/04/15 06:32:02;;;;;;;13.18;4.30;;;10.20;50.90;;;;;;5451073;26;20377;-73
2024/04/15 06:34:29;;;;;;;15.80;4.70;;;10.30;50.60;;;;;;5450740;26;20336;-72
2024/04/15 06:36:55;;;;;;;12.07;4.60;;;10.30;52.40;;;;;;5451269;26;20427;-71
2024/04/15 06:39:21;;;;;;;15.23;4.20;;;10.30;52.50;;;;;;5451237;26;20390;-72
2024/04/15 06:41:47;;;;;;;9.40;3.97;;;10.40;51.60;;;;;;5451515;26;20462;-72
2024/04/15 06:44:13;;;;;;;15.63;3.97;;;10.50;51.30;;;;;;5451339;26;20333;-73
2024/04/15 06:46:39;;;;;;;11.23;3.85;;;10.50;51.50;;;;;;5451777;26;20427;-72
2024/04/15 06:49:05;;;;;;;16.92;4.45;;;10.50;51.10;;;;;;5451693;26;20345;-73
2024/04/15 06:51:30;;;;;;;18.73;4.30;;;10.50;50.80;;;;;;5451806;26;20434;-72
2024/04/15 06:53:56;;;;;;;13.93;4.40;;;10.40;50.70;;;;;;5451113;26;20422;-72
2024/04/15 06:56:21;;;;;;;16.27;3.53;;;10.30;51.00;;;;;;5450815;26;20376;-70
2024/04/15 06:58:47;;;;;;;14.52;4.43;;;10.20;52.10;;;;;;5451322;26;20376;-72
2024/04/15 07:01:13;;;;;;;18.05;4.50;;;10.20;52.40;;;;;;5390052;26;20341;-72
2024/04/15 07:03:38;;;;;;;16.77;4.07;;;9.90;52.80;;;;;;5452138;26;20839;-70
2024/04/15 07:06:04;;;;;;;15.77;4.80;;;10.20;54.20;;;;;;5451286;26;20336;-73
2024/04/15 07:08:30;;;;;;;17.00;4.80;;;10.30;53.60;;;;;;5450863;26;20397;-72
2024/04/15 07:10:55;;;;;;;12.67;4.43;;;10.50;52.70;;;;;;5418898;26;20549;-72
2024/04/15 07:13:22;;;;;;;17.17;4.30;;;10.80;50.40;;;;;;5450737;26;20381;-71
2024/04/15 07:15:48;;;;;;;13.35;3.95;;;11.10;47.70;;;;;;5451197;26;20373;-73
2024/04/15 07:18:14;;;;;;;17.17;4.55;;;11.30;46.80;;;;;;5450960;26;20918;-72
2024/04/15 07:20:39;;;;;;;9.93;3.37;;;11.50;44.30;;;;;;5451322;26;20333;-72
2024/04/15 07:23:05;;;;;;;15.70;4.27;;;11.60;43.90;;;;;;5450650;26;20415;-72
2024/04/15 07:25:30;;;;;;;10.90;4.63;;;11.70;44.20;;;;;;5450483;26;20340;-72
2024/04/15 07:27:56;;;;;;;15.80;3.97;;;11.60;43.80;;;;;;5451074;26;20385;-73
2024/04/15 07:30:22;;;;;;;12.60;4.22;;;11.60;44.10;;;;;;5456371;26;20791;-72
2024/04/15 07:32:48;;;;;;;16.85;4.18;;;11.70;43.70;;;;;;5459893;26;20361;-73
2024/04/15 07:35:13;;;;;;;16.00;4.20;;;11.80;41.90;;;;;;5461726;26;20329;-73
2024/04/15 07:37:39;;;;;;;15.38;4.25;;;11.90;42.40;;;;;;5463649;26;20381;-73
2024/04/15 07:40:05;;;;;;;14.55;4.25;;;11.90;42.10;;;;;;5462268;26;20348;-73
2024/04/15 07:42:31;;;;;;;11.75;3.50;;;11.70;41.70;;;;;;5460795;26;20454;-73
2024/04/15 07:44:56;;;;;;;16.63;4.10;;;11.70;42.60;;;;;;5459183;26;20341;-72
2024/04/15 07:47:22;;;;;;;15.30;4.40;;;11.40;43.30;;;;;;5459627;26;20332;-71
2024/04/15 07:49:47;;;;;;;17.23;4.23;;;11.20;45.10;;;;;;5459570;26;20443;-72
2024/04/15 07:52:13;;;;;;;15.00;4.47;;;11.10;44.60;;;;;;5456102;26;20436;-71
2024/04/15 07:54:38;;;;;;;12.60;4.07;;;11.10;46.80;;;;;;5457166;26;20365;-73
2024/04/15 07:57:04;;;;;;;16.73;4.68;;;11.00;46.10;;;;;;5456422;26;20811;-72
2024/04/15 07:59:30;;;;;;;11.85;4.00;;;11.10;44.60;;;;;;5456625;26;20360;-71
2024/04/15 08:01:55;;;;;;;11.75;4.47;;;11.20;45.30;;;;;;5457676;26;20460;-72
2024/04/15 08:04:21;;;;;;;9.83;3.70;;;11.20;43.50;;;;;;5455000;26;20349;-72
2024/04/15 08:06:46;;;;;;;11.73;3.50;;;11.30;44.00;;;;;;5453661;26;20337;-73
2024/04/15 08:09:12;;;;;;;14.43;4.10;;;11.30;42.60;;;;;;5450400;26;20385;-70
2024/04/15 08:11:37;;;;;;;9.47;3.50;;;11.40;43.40;;;;;;5450004;26;20365;-73
2024/04/15 08:14:03;;;;;;;13.85;4.10;;;11.50;40.90;;;;;;5449552;26;20434;-72
2024/04/15 08:16:29;;;;;;;10.43;3.83;;;11.80;39.50;;;;;;5449668;26;20325;-71
2024/04/15 08:18:54;;;;;;;13.20;3.90;;;12.10;39.30;;;;;;5449746;26;20347;-73
2024/04/15 08:21:21;;;;;;;12.68;4.10;;;12.70;35.90;;;;;;5450016;26;20357;-71
2024/04/15 08:23:47;;;;;;;11.82;3.75;;;13.20;34.10;;;;;;5450041;26;20814;-72
2024/04/15 08:26:13;;;;;;;17.90;4.00;;;13.50;34.00;;;;;;5450437;26;20425;-71
2024/04/15 08:28:39;;;;;;;15.88;3.45;;;14.00;32.90;;;;;;5450164;26;20348;-70
2024/04/15 08:31:04;;;;;;;12.43;4.20;;;14.30;31.40;;;;;;5449496;26;20337;-71
2024/04/15 08:33:30;;;;;;;14.20;3.47;;;14.40;29.00;;;;;;5448893;26;20336;-70
2024/04/15 08:35:56;;;;;;;10.73;3.95;;;14.30;28.40;;;;;;5448575;26;20345;-71
2024/04/15 08:38:21;;;;;;;14.02;4.00;;;14.30;28.40;;;;;;5449542;26;20396;-70
2024/04/15 08:40:57;;;;;;;10.63;3.58;;;14.30;28.40;;;;;;5449288;26;20364;-71
2024/04/15 08:43:24;;;;;;;8.50;3.00;;;14.60;28.20;;;;;;5449035;26;20352;-70
2024/04/15 08:46:01;;;;;;;15.27;4.00;;;14.70;27.30;;;;;;5418009;26;20832;-71
2024/04/15 08:48:27;;;;;;;13.63;4.00;;;14.70;26.30;;;;;;5449003;26;20333;-71
2024/04/15 08:50:57;;;;;;;12.30;3.90;;;14.70;27.10;;;;;;5448566;26;20453;-71
2024/04/15 08:53:23;;;;;;;14.35;3.45;;;14.80;26.10;;;;;;5448918;26;20325;-71
2024/04/15 08:55:50;;;;;;;11.07;2.72;;;14.80;25.80;;;;;;5449090;26;20357;-72
2024/04/15 08:58:16;;;;;;;9.77;2.70;;;14.80;24.50;;;;;;5448969;26;20361;-72
2024/04/15 09:00:44;;;;;;;13.15;2.75;;;14.90;24.00;;;;;;5449104;26;20384;-73
2024/04/15 09:03:10;;;;;;;10.35;3.20;;;14.90;23.90;;;;;;5449477;26;20837;-72
2024/04/15 09:05:36;;;;;;;9.15;3.00;;;14.80;23.80;;;;;;5448908;26;20389;-72
2024/04/15 09:08:02;;;;;;;14.30;3.30;;;14.90;23.50;;;;;;5449429;26;20706;-72
2024/04/15 09:10:28;;;;;;;9.30;3.15;;;14.80;24.10;;;;;;5449812;26;20333;-72
2024/04/15 09:12:56;;;;;;;12.90;3.30;;;14.90;23.70;;;;;;5449364;26;20388;-73
2024/04/15 09:15:22;;;;;;;12.90;2.95;;;15.10;23.90;;;;;;5449310;26;20338;-72
2024/04/15 09:17:50;;;;;;;11.47;2.70;;;15.10;22.40;;;;;;5449509;26;20329;-73
2024/04/15 09:20:18;;;;;;;10.27;3.08;;;15.30;23.30;;;;;;5448629;26;20883;-72
2024/04/15 09:22:44;;;;;;;9.95;2.50;;;15.70;22.60;;;;;;5448921;26;20340;-72
2024/04/15 09:25:10;;;;;;;10.40;2.80;;;15.90;20.20;;;;;;5449109;26;20390;-73
2024/04/15 09:27:35;;;;;;;8.32;2.78;;;15.80;19.40;;;;;;5449617;26;20357;-73
2024/04/15 09:30:02;;;;;;;13.43;3.03;;;15.30;20.00;;;;;;5449315;26;20387;-73
2024/04/15 09:32:28;;;;;;;9.65;2.40;;;15.30;21.30;;;;;;5450133;26;20325;-72
2024/04/15 09:35:05;;;;;;;8.70;2.65;;;15.40;21.90;;;;;;5448490;26;20669;-72
2024/04/15 09:37:32;;;;;;;9.00;2.55;;;15.60;20.40;;;;;;5417226;26;20417;-71
2024/04/15 09:39:57;;;;;;;9.60;2.90;;;15.60;20.60;;;;;;5448851;26;20373;-72
2024/04/15 09:42:24;;;;;;;15.23;3.42;;;15.40;20.20;;;;;;5449437;26;20325;-71
2024/04/15 09:44:50;;;;;;;10.80;2.80;;;15.00;21.30;;;;;;5448874;26;20369;-71
2024/04/15 09:47:17;;;;;;;12.65;2.63;;;14.90;22.00;;;;;;5418269;26;20379;-71
2024/04/15 09:49:43;;;;;;;9.88;2.65;;;14.90;19.80;;;;;;5452769;26;20471;-71
2024/04/15 09:52:19;;;;;;;9.52;2.38;;;15.00;20.00;;;;;;5452851;26;20369;-71
2024/04/15 09:54:46;;;;;;;10.63;2.55;;;14.80;20.50;;;;;;5452517;26;20372;-71
2024/04/15 09:57:23;;;;;;;8.48;2.45;;;14.90;21.40;;;;;;5452706;26;20333;-70
2024/04/15 09:59:57;;;;;;;7.35;2.20;;;15.00;21.00;;;;;;5453213;26;20340;-71
2024/04/15 10:02:36;;;;;;;12.55;3.20;;;14.80;21.70;;;;;;5453085;26;20360;-72
2024/04/15 10:05:22;;;;;;;8.25;2.80;;;15.10;22.40;;;;;;5452563;26;20389;-72
2024/04/15 10:07:53;;;;;;;10.25;2.60;;;15.50;21.00;;;;;;5452661;26;20333;-72
2024/04/15 10:10:20;;;;;;;12.20;3.30;;;15.70;20.70;;;;;;5452997;26;20778;-72
2024/04/15 10:12:51;;;;;;;14.07;2.85;;;15.90;19.90;;;;;;5452812;26;20340;-72
2024/04/15 10:15:22;;;;;;;13.50;3.00;;;15.80;19.10;;;;;;5462451;26;20332;-72
2024/04/15 10:17:58;;;;;;;8.85;2.60;;;15.60;19.60;;;;;;5463705;26;20448;-72
2024/04/15 10:20:28;;;;;;;6.50;2.70;;;15.80;19.80;;;;;;5467246;26;20366;-72
2024/04/15 10:22:58;;;;;;;22.23;3.47;;;16.00;18.90;;;;;;5459018;26;20337;-70
2024/04/15 10:25:26;;;;;;;11.52;2.70;;;16.30;17.80;;;;;;5461015;26;20325;-71
2024/04/15 10:27:51;;;;;;;11.02;2.35;;;16.60;17.30;;;;;;5455670;26;20875;-71
2024/04/15 10:30:18;;;;;;;8.20;2.80;;;16.60;16.70;;;;;;5451383;26;20341;-71
2024/04/15 10:32:47;;;;;;;10.90;3.10;;;16.80;17.10;;;;;;5451834;26;20329;-72
2024/04/15 10:35:22;;;;;;;9.60;3.00;;;16.90;16.10;;;;;;5451692;26;20728;-71
2024/04/15 10:37:51;;;;;;;12.65;3.30;;;16.60;16.40;;;;;;5451651;26;20329;-71
2024/04/15 10:40:20;;;;;;;8.70;2.97;;;16.60;16.60;;;;;;5451138;26;20879;-73
2024/04/15 10:42:45;;;;;;;13.00;3.10;;;16.80;16.30;;;;;;5451219;26;20834;-71
2024/04/15 10:45:19;;;;;;;15.10;3.60;;;16.60;16.30;;;;;;5419805;26;20333;-72
2024/04/15 10:47:46;;;;;;;10.35;3.78;;;16.40;16.70;;;;;;5451838;26;20381;-71
2024/04/15 10:50:12;;;;;;;11.95;3.40;;;16.50;17.30;;;;;;5452044;26;20438;-72
2024/04/15 10:52:38;;;;;;;9.60;3.20;;;16.60;16.60;;;;;;5450704;26;20340;-71
2024/04/15 10:55:04;;;;;;;14.05;3.00;;;16.70;16.30;;;;;;5450688;26;20726;-72
2024/04/15 10:57:29;;;;;;;16.42;3.85;;;16.90;16.40;;;;;;5450445;26;20373;-71
2024/04/15 10:59:55;;;;;;;15.80;4.25;;;17.00;15.40;;;;;;5450168;26;20332;-71
2024/04/15 11:02:21;;;;;;;13.77;4.00;;;16.90;16.00;;;;;;5450316;26;20333;-72
2024/04/15 11:04:50;;;;;;;10.10;3.30;;;17.10;15.80;;;;;;5450191;26;20337;-71
2024/04/15 11:07:19;;;;;;;12.85;3.25;;;17.20;15.50;;;;;;5450384;26;20702;-71
2024/04/15 11:09:44;;;;;;;11.70;3.20;;;16.80;14.90;;;;;;5450477;26;20337;-72
2024/04/15 11:12:10;;;;;;;9.43;2.87;;;16.60;15.70;;;;;;5451252;26;20325;-72
2024/04/15 11:14:36;;;;;;;8.30;2.90;;;16.30;16.80;;;;;;5449771;26;20377;-72
2024/04/15 11:17:04;;;;;;;9.53;3.07;;;16.20;17.40;;;;;;5450363;26;20499;-70
2024/04/15 11:19:29;;;;;;;8.98;2.75;;;16.40;16.70;;;;;;5451558;26;20389;-72
2024/04/15 11:22:05;;;;;;;11.10;3.20;;;16.40;16.70;;;;;;5451560;26;20333;-73
2024/04/15 11:24:33;;;;;;;9.60;2.80;;;16.40;16.50;;;;;;5451559;26;20333;-71
2024/04/15 11:27:00;;;;;;;8.57;2.50;;;16.20;16.60;;;;;;5450412;26;20336;-72
2024/04/15 11:29:25;;;;;;;9.68;2.45;;;16.40;15.30;;;;;;5450278;26;20712;-70
2024/04/15 11:31:51;;;;;;;9.43;2.42;;;16.60;15.30;;;;;;5450623;26;20413;-72
2024/04/15 11:34:17;;;;;;;12.13;2.65;;;16.80;14.90;;;;;;5449553;26;20774;-72
2024/04/15 11:36:44;;;;;;;12.43;2.40;;;16.80;14.90;;;;;;5449630;26;20325;-71
2024/04/15 11:39:10;;;;;;;9.65;2.33;;;16.60;15.30;;;;;;5450246;26;20385;-71
2024/04/15 11:41:36;;;;;;;8.30;2.40;;;16.90;15.20;;;;;;5450529;26;20341;-72
2024/04/15 11:44:01;;;;;;;7.53;2.30;;;17.10;15.30;;;;;;5450177;26;20690;-73
2024/04/15 11:46:27;;;;;;;9.40;2.90;;;17.40;14.70;;;;;;5449670;26;20811;-71
2024/04/15 11:48:53;;;;;;;13.13;2.67;;;17.70;14.30;;;;;;5449949;26;20373;-72
2024/04/15 11:51:19;;;;;;;7.15;2.30;;;17.80;13.20;;;;;;5449420;26;20362;-73
2024/04/15 11:53:46;;;;;;;8.57;2.63;;;17.70;12.50;;;;;;5449321;26;20682;-73
2024/04/15 11:56:13;;;;;;;9.77;2.80;;;17.50;12.60;;;;;;5449520;26;20373;-72
2024/04/15 11:58:40;;;;;;;9.88;2.97;;;17.20;13.00;;;;;;5450159;26;20381;-72
2024/04/15 12:01:06;;;;;;;6.15;2.00;;;17.20;13.20;;;;;;5449867;26;20387;-73
2024/04/15 12:03:32;;;;;;;11.63;2.70;;;17.40;13.40;;;;;;5449044;26;20332;-71
2024/04/15 12:05:57;;;;;;;11.35;2.22;;;17.20;12.80;;;;;;5449325;26;20336;-72
2024/04/15 12:08:23;;;;;;;8.10;2.13;;;16.70;12.40;;;;;;5449968;26;20328;-72
2024/04/15 12:10:48;;;;;;;9.23;2.50;;;16.40;13.70;;;;;;5446798;26;20520;-72
2024/04/15 12:13:14;;;;;;;10.15;2.70;;;16.40;13.70;;;;;;5449358;26;20375;-72
2024/04/15 12:15:40;;;;;;;10.00;2.30;;;16.20;13.70;;;;;;5449401;26;20336;-72
2024/04/15 12:18:07;;;;;;;8.97;2.50;;;16.10;14.10;;;;;;5449735;26;20333;-72
2024/04/15 12:20:33;;;;;;;8.75;2.40;;;15.90;14.20;;;;;;5449966;26;20324;-70
2024/04/15 12:22:59;;;;;;;8.02;2.45;;;15.80;14.40;;;;;;5450030;26;20358;-71
2024/04/15 12:25:24;;;;;;;8.30;2.40;;;15.50;16.60;;;;;;5449302;26;20697;-72
2024/04/15 12:27:50;;;;;;;11.27;2.60;;;15.50;16.80;;;;;;5449823;26;20361;-72
2024/04/15 12:30:16;;;;;;;7.40;1.77;;;15.70;15.60;;;;;;5448790;26;20891;-72
2024/04/15 12:32:42;;;;;;;12.48;3.33;;;15.70;15.20;;;;;;5448857;26;20333;-71
2024/04/15 12:35:08;;;;;;;7.73;2.00;;;15.70;16.90;;;;;;5448223;26;20723;-71